Etusivu
METAR-TAF:

METAR-TAF

Lentoasemat :

Perryton Ochiltree County Airport

Perryton, Texas, Yhdysvallat

Leveyspiiri: 36-24N, Pituuspiiri: 100-44W, korkeus merenpinnasta: 890 m

Tämänhetkinen sää

Tämä raportti tehtiin 21 minuuttia sitten, kello 02.15 UTC
Tuuli 10 kn etelästä/kaakosta
Lämpötila 13°C
Kosteus 44%
Ilmanpaine 1007 hPa
Näkyvyys: 16.1 km
selkeää

METAR: KPYX 200215Z AUTO 16010KT 10SM CLR 13/01 A2975 RMK AO2 T01290011

Aika: 20:36 (02:36 UTC)


TAF: puuttuu

Säähavainnot ja -ennusteet yli 4000 lentoasemalta (METAR- ja TAF-raportit).

Käytössä olevat sääasemat on merkitty karttaan keltaisilla ja punaisilla pisteillä.

Aseta hiiri pisteen päälle nähdäksesi sääaseman nimen.

Klikkaa sitten nähdäksesi säähavainnot ja -ennusteet.

Kartan vaihtaminen: klikkaa mustalla rastilla varustettuja vihreitä pisteitä, niin voit zoomata sisään; viivalla varustettua vihreää pistettä, niin voit zoomata ulos tai vihreitä nuolia, niin pääset viereisille kartoille.


METAR-TAF: